Time;durP1;ratioP1;P1;durP2;ratioP2;P2;SDS_P1;SDS_P2;PMS_P1;PMS_P2;Temp;Humidity;BMP_temperature;BMP_pressure;BME280_temperature;BME280_humidity;BME280_pressure;Samples;Min_cycle;Max_cycle;Signal;HPM_P1;HPM_P2
2022/01/24 00:02:12;;;;;;;12.97;6.90;;;;;;;;;;5118280;28;20227;-88
2022/01/24 00:04:40;;;;;;;9.40;6.23;;;;;;;;;;5118677;28;20205;-87
2022/01/24 00:07:09;;;;;;;8.83;7.30;;;;;;;;;;5118374;28;20206;-88
2022/01/24 00:09:38;;;;;;;14.20;10.50;;;;;;;;;;5117467;28;20538;-88
2022/01/24 00:12:16;;;;;;;10.80;7.13;;;;;;;;;;5128446;27;20203;-88
2022/01/24 00:15:02;;;;;;;1.30;1.30;;;;;;;;;;5138931;27;20257;-88
2022/01/24 00:17:35;;;;;;;1.27;1.23;;;;;;;;;;5137831;27;20238;-87
2022/01/24 00:28:22;;;;;;;4.47;3.17;;;;;;;;;;5138419;27;20206;-87
2022/01/24 00:30:52;;;;;;;6.53;5.50;;;;;;;;;;5138400;27;20203;-88
2022/01/24 00:33:20;;;;;;;1.43;1.37;;;;;;;;;;5138321;27;20219;-88
2022/01/24 00:35:50;;;;;;;5.50;5.10;;;;;;;;;;5138211;27;20217;-88
2022/01/24 00:38:19;;;;;;;2.97;2.67;;;;;;;;;;5138052;27;20285;-88
2022/01/24 00:40:49;;;;;;;7.37;6.27;;;;;;;;;;5137982;27;20236;-88
2022/01/24 00:43:26;;;;;;;1.20;1.20;;;;;;;;;;5138046;27;20210;-88
2022/01/24 00:46:03;;;;;;;11.23;5.17;;;;;;;;;;5138384;27;20208;-88
2022/01/24 00:49:10;;;;;;;6.90;1.40;;;;;;;;;;5138351;27;20176;-88
2022/01/24 00:54:47;;;;;;;1.40;1.40;;;;;;;;;;5119994;27;20250;-88
2022/01/24 00:57:16;;;;;;;1.00;1.00;;;;;;;;;;5138011;27;20226;-88
2022/01/24 00:59:44;;;;;;;0.80;0.80;;;;;;;;;;5137954;27;20239;-88
2022/01/24 01:02:15;;;;;;;0.70;0.70;;;;;;;;;;5137662;27;20210;-88
2022/01/24 01:04:58;;;;;;;1.63;1.63;;;;;;;;;;5137346;27;20197;-88
2022/01/24 01:07:34;;;;;;;2.23;2.20;;;;;;;;;;5137886;27;20280;-88
2022/01/24 01:18:22;;;;;;;1.80;1.73;;;;;;;;;;5116973;28;20238;-88
2022/01/24 01:21:08;;;;;;;2.77;2.67;;;;;;;;;;5116756;28;20206;-88
2022/01/24 01:23:39;;;;;;;6.33;5.07;;;;;;;;;;5117663;28;20263;-88
2022/01/24 01:26:12;;;;;;;13.00;9.00;;;;;;;;;;5116957;28;20286;-88
2022/01/24 01:28:43;;;;;;;3.47;3.03;;;;;;;;;;5117597;28;20201;-88
2022/01/24 01:31:22;;;;;;;5.00;4.00;;;;;;;;;;5117859;28;20227;-88
2022/01/24 01:34:01;;;;;;;6.83;5.13;;;;;;;;;;5117363;28;20233;-88
2022/01/24 01:36:59;;;;;;;4.33;3.33;;;;;;;;;;5117718;28;20206;-88
2022/01/24 01:39:50;;;;;;;1.17;1.17;;;;;;;;;;5116816;28;20240;-88
2022/01/24 01:56:07;;;;;;;4.83;4.30;;;;;;;;;;5115732;28;20264;-88
2022/01/24 01:58:36;;;;;;;10.83;8.13;;;;;;;;;;5116069;28;20292;-87
2022/01/24 02:01:05;;;;;;;1.97;1.87;;;;;;;;;;5116143;28;20231;-88
2022/01/24 02:03:34;;;;;;;4.30;3.70;;;;;;;;;;5116954;28;20225;-87
2022/01/24 02:06:04;;;;;;;4.73;4.40;;;;;;;;;;5120682;28;20234;-88
2022/01/24 02:08:33;;;;;;;11.80;8.43;;;;;;;;;;5119973;28;20201;-88
2022/01/24 02:11:02;;;;;;;16.53;12.23;;;;;;;;;;5121457;27;20208;-88
2022/01/24 02:13:31;;;;;;;1.53;1.53;;;;;;;;;;5140544;27;20210;-88
2022/01/24 02:16:09;;;;;;;15.10;10.60;;;;;;;;;;5132584;27;20245;-88
2022/01/24 02:18:40;;;;;;;19.37;15.03;;;;;;;;;;5132656;27;20254;-87
2022/01/24 02:21:24;;;;;;;10.87;5.60;;;;;;;;;;5120380;28;20192;-88
2022/01/24 02:23:57;;;;;;;2.70;2.60;;;;;;;;;;5119787;28;20181;-88
2022/01/24 02:26:26;;;;;;;0.80;0.80;;;;;;;;;;5120497;28;20201;-88
2022/01/24 02:29:05;;;;;;;1.47;1.47;;;;;;;;;;5119422;28;20198;-88
2022/01/24 02:31:43;;;;;;;3.07;2.97;;;;;;;;;;5120089;28;20201;-87
2022/01/24 02:34:29;;;;;;;3.07;2.87;;;;;;;;;;5131491;27;20265;-88
2022/01/24 02:36:59;;;;;;;4.43;3.47;;;;;;;;;;5140661;27;20221;-88
2022/01/24 02:39:45;;;;;;;3.20;2.90;;;;;;;;;;5140216;27;20270;-88
2022/01/24 02:53:20;;;;;;;1.67;1.57;;;;;;;;;;5119380;28;20221;-88
2022/01/24 02:55:50;;;;;;;1.63;1.57;;;;;;;;;;5119151;28;20260;-88
2022/01/24 02:58:19;;;;;;;1.43;1.37;;;;;;;;;;5119011;28;20213;-88
2022/01/24 03:00:49;;;;;;;11.63;7.03;;;;;;;;;;5119242;28;20222;-88
2022/01/24 03:03:18;;;;;;;14.63;7.93;;;;;;;;;;5118647;28;20228;-88
2022/01/24 03:05:46;;;;;;;9.93;8.10;;;;;;;;;;5119853;28;20208;-88
2022/01/24 03:08:15;;;;;;;17.90;12.63;;;;;;;;;;5118543;28;20205;-88
2022/01/24 03:10:46;;;;;;;9.43;6.77;;;;;;;;;;5119693;28;20198;-88
2022/01/24 03:13:30;;;;;;;13.33;8.67;;;;;;;;;;5119559;28;20196;-88
2022/01/24 03:15:59;;;;;;;8.00;5.17;;;;;;;;;;5118749;28;20266;-88
2022/01/24 03:18:28;;;;;;;4.33;3.23;;;;;;;;;;5118449;28;20282;-88
2022/01/24 03:20:57;;;;;;;4.77;3.33;;;;;;;;;;5118421;28;20252;-88
2022/01/24 03:23:26;;;;;;;2.00;1.93;;;;;;;;;;5118399;28;20237;-88
2022/01/24 03:25:55;;;;;;;10.33;8.03;;;;;;;;;;5118266;28;20217;-87
2022/01/24 03:28:25;;;;;;;1.50;1.50;;;;;;;;;;5118339;28;20228;-88
2022/01/24 03:30:54;;;;;;;2.43;2.07;;;;;;;;;;5118269;28;20184;-88
2022/01/24 03:33:22;;;;;;;7.67;6.63;;;;;;;;;;5118484;28;20293;-88
2022/01/24 03:35:51;;;;;;;2.73;2.53;;;;;;;;;;5117823;28;20203;-88
2022/01/24 03:38:19;;;;;;;2.00;1.90;;;;;;;;;;5118657;28;20271;-88
2022/01/24 03:40:47;;;;;;;1.47;1.47;;;;;;;;;;5118043;28;20222;-87
2022/01/24 03:43:17;;;;;;;14.37;9.43;;;;;;;;;;5118766;28;20234;-88
2022/01/24 03:45:58;;;;;;;7.33;6.47;;;;;;;;;;5117193;28;20216;-88
2022/01/24 03:48:38;;;;;;;15.93;10.57;;;;;;;;;;5118415;28;20185;-88
2022/01/24 03:51:06;;;;;;;2.70;2.50;;;;;;;;;;5117819;28;20220;-88
2022/01/24 03:53:35;;;;;;;2.73;2.53;;;;;;;;;;5118296;28;20200;-88
2022/01/24 03:56:04;;;;;;;5.33;4.37;;;;;;;;;;5117420;28;20196;-87
2022/01/24 03:58:33;;;;;;;8.03;5.87;;;;;;;;;;5117573;28;20211;-88
2022/01/24 04:01:04;;;;;;;12.10;9.50;;;;;;;;;;5117734;28;20253;-88
2022/01/24 04:03:33;;;;;;;4.37;3.83;;;;;;;;;;5118018;28;20220;-88
2022/01/24 04:06:01;;;;;;;2.40;2.33;;;;;;;;;;5117861;28;20201;-88
2022/01/24 04:08:30;;;;;;;1.53;1.53;;;;;;;;;;5117645;28;20210;-88
2022/01/24 04:10:59;;;;;;;4.30;3.57;;;;;;;;;;5117546;28;20235;-87
2022/01/24 04:13:31;;;;;;;10.83;7.53;;;;;;;;;;5117490;28;20200;-88
2022/01/24 04:16:23;;;;;;;12.17;6.27;;;;;;;;;;5118348;28;20270;-88
2022/01/24 04:19:00;;;;;;;8.47;6.90;;;;;;;;;;5117116;28;20200;-88
2022/01/24 04:21:31;;;;;;;8.73;6.87;;;;;;;;;;5117455;28;20209;-87
2022/01/24 04:24:03;;;;;;;5.83;4.00;;;;;;;;;;5117699;28;20224;-88
2022/01/24 04:26:32;;;;;;;14.53;11.63;;;;;;;;;;5136785;27;20205;-88
2022/01/24 04:29:01;;;;;;;18.07;12.97;;;;;;;;;;5137676;27;20228;-88
2022/01/24 04:31:30;;;;;;;20.23;15.20;;;;;;;;;;5137462;27;20256;-88
2022/01/24 04:34:00;;;;;;;2.73;2.60;;;;;;;;;;5137128;27;20204;-88
2022/01/24 04:36:29;;;;;;;3.53;3.33;;;;;;;;;;5137642;27;20229;-88
2022/01/24 04:38:58;;;;;;;1.00;1.00;;;;;;;;;;5138094;27;20195;-88
2022/01/24 04:41:30;;;;;;;1.60;1.53;;;;;;;;;;5137092;27;20245;-88
2022/01/24 04:44:07;;;;;;;2.00;2.00;;;;;;;;;;5138188;27;20215;-88
2022/01/24 04:46:58;;;;;;;2.13;2.00;;;;;;;;;;5136948;27;20195;-88
2022/01/24 04:52:28;;;;;;;5.33;3.43;;;;;;;;;;5137463;27;20234;-88
2022/01/24 04:54:56;;;;;;;14.63;10.63;;;;;;;;;;5138122;27;20180;-87
2022/01/24 04:57:25;;;;;;;0.80;0.80;;;;;;;;;;5137055;27;20235;-88
2022/01/24 04:59:54;;;;;;;8.93;7.50;;;;;;;;;;5137355;27;20206;-88
2022/01/24 05:02:24;;;;;;;6.33;4.70;;;;;;;;;;5137387;27;20197;-87
2022/01/24 05:04:56;;;;;;;5.53;4.77;;;;;;;;;;5137362;27;20207;-88
2022/01/24 05:07:24;;;;;;;6.10;5.60;;;;;;;;;;5136932;27;20227;-88
2022/01/24 05:09:59;;;;;;;1.27;1.27;;;;;;;;;;5137101;27;20196;-88
2022/01/24 05:21:09;;;;;;;0.80;0.80;;;;;;;;;;5136879;27;20227;-88
2022/01/24 05:23:40;;;;;;;0.80;0.80;;;;;;;;;;5136705;28;20207;-88
2022/01/24 05:26:09;;;;;;;3.53;3.33;;;;;;;;;;5118044;28;20293;-88
2022/01/24 05:28:38;;;;;;;0.70;0.70;;;;;;;;;;5116481;28;20213;-88
2022/01/24 05:31:07;;;;;;;0.80;0.80;;;;;;;;;;5115964;28;20193;-88
2022/01/24 05:33:35;;;;;;;1.60;1.60;;;;;;;;;;5115963;28;20233;-88
2022/01/24 05:36:05;;;;;;;1.80;1.73;;;;;;;;;;5116315;28;20207;-88
2022/01/24 05:38:34;;;;;;;9.50;6.23;;;;;;;;;;5116797;28;20196;-88
2022/01/24 05:41:02;;;;;;;2.83;2.50;;;;;;;;;;5119376;28;20286;-88
2022/01/24 05:43:31;;;;;;;2.23;2.13;;;;;;;;;;5119516;28;20234;-88
2022/01/24 05:45:59;;;;;;;1.33;1.33;;;;;;;;;;5119908;28;20206;-88
2022/01/24 05:48:28;;;;;;;2.37;2.27;;;;;;;;;;5119656;28;20217;-88
2022/01/24 05:50:56;;;;;;;2.23;2.13;;;;;;;;;;5119874;28;20315;-88
2022/01/24 05:53:26;;;;;;;2.30;2.10;;;;;;;;;;5119892;28;20231;-88
2022/01/24 05:55:55;;;;;;;4.27;3.97;;;;;;;;;;5119179;28;20220;-88
2022/01/24 05:58:23;;;;;;;5.60;4.40;;;;;;;;;;5119872;28;20226;-88
2022/01/24 06:00:52;;;;;;;0.90;0.90;;;;;;;;;;5119598;28;20320;-88
2022/01/24 06:03:21;;;;;;;2.27;1.93;;;;;;;;;;5119219;28;20289;-88
2022/01/24 06:05:50;;;;;;;1.80;1.57;;;;;;;;;;5120138;28;20209;-88
2022/01/24 06:08:18;;;;;;;5.40;4.50;;;;;;;;;;5120705;28;20205;-88
2022/01/24 06:10:48;;;;;;;13.17;9.00;;;;;;;;;;5119975;28;20242;-88
2022/01/24 06:13:17;;;;;;;2.13;2.03;;;;;;;;;;5120011;28;20204;-88
2022/01/24 06:15:45;;;;;;;2.93;2.60;;;;;;;;;;5120388;28;20272;-88
2022/01/24 06:18:14;;;;;;;2.00;1.90;;;;;;;;;;5119370;28;20249;-88
2022/01/24 06:20:43;;;;;;;1.93;1.83;;;;;;;;;;5119472;28;20289;-87
2022/01/24 06:23:13;;;;;;;2.93;2.83;;;;;;;;;;5119497;28;20205;-87
2022/01/24 06:25:42;;;;;;;2.90;2.70;;;;;;;;;;5119123;28;20194;-88
2022/01/24 06:28:14;;;;;;;1.60;1.57;;;;;;;;;;5119712;28;20225;-88
2022/01/24 06:30:44;;;;;;;1.47;1.47;;;;;;;;;;5119772;28;20202;-88
2022/01/24 06:33:12;;;;;;;1.77;1.67;;;;;;;;;;5120379;28;20236;-88
2022/01/24 06:35:41;;;;;;;0.70;0.70;;;;;;;;;;5120367;28;20214;-88
2022/01/24 06:38:12;;;;;;;1.47;1.47;;;;;;;;;;5122514;28;20205;-88
2022/01/24 06:40:40;;;;;;;2.20;2.13;;;;;;;;;;5122826;28;20405;-88
2022/01/24 06:43:09;;;;;;;2.70;2.60;;;;;;;;;;5121810;28;20237;-88
2022/01/24 06:45:39;;;;;;;5.53;5.07;;;;;;;;;;5121638;28;20217;-88
2022/01/24 06:48:07;;;;;;;19.07;11.90;;;;;;;;;;5121198;28;20206;-88
2022/01/24 06:50:35;;;;;;;10.33;9.27;;;;;;;;;;5120286;28;20198;-88
2022/01/24 06:53:04;;;;;;;0.87;0.87;;;;;;;;;;5120495;28;20194;-88
2022/01/24 06:55:33;;;;;;;2.23;1.67;;;;;;;;;;5120901;28;20254;-88
2022/01/24 06:58:01;;;;;;;4.33;3.73;;;;;;;;;;5121212;28;20240;-87
2022/01/24 07:00:31;;;;;;;1.23;1.23;;;;;;;;;;5123472;28;20205;-88
2022/01/24 07:03:01;;;;;;;2.43;2.30;;;;;;;;;;5120526;28;20229;-88
2022/01/24 07:05:30;;;;;;;1.57;1.57;;;;;;;;;;5120830;28;20191;-88
2022/01/24 07:07:59;;;;;;;4.73;3.97;;;;;;;;;;5120354;28;20209;-88
2022/01/24 07:10:28;;;;;;;1.53;1.43;;;;;;;;;;5120498;28;20204;-88
2022/01/24 07:12:59;;;;;;;1.33;1.33;;;;;;;;;;5120777;28;20204;-88
2022/01/24 07:15:33;;;;;;;1.40;1.40;;;;;;;;;;5120831;28;20198;-88
2022/01/24 07:18:57;;;;;;;1.87;1.73;;;;;;;;;;5108293;28;20236;-88
2022/01/24 07:21:07;;;;;;;3.00;1.47;;;;;;;;;;5099783;28;20205;-88
2022/01/24 07:23:36;;;;;;;3.17;2.97;;;;;;;;;;5099785;28;20213;-88
2022/01/24 07:26:04;;;;;;;0.77;0.77;;;;;;;;;;5117591;28;20213;-88
2022/01/24 07:28:33;;;;;;;4.90;2.50;;;;;;;;;;5120048;28;20286;-88
2022/01/24 07:31:01;;;;;;;2.73;2.57;;;;;;;;;;5120295;28;20205;-88
2022/01/24 07:33:34;;;;;;;6.40;2.40;;;;;;;;;;5119321;28;20210;-88
2022/01/24 07:36:06;;;;;;;2.10;2.00;;;;;;;;;;5123270;28;20224;-87
2022/01/24 07:38:38;;;;;;;2.30;2.20;;;;;;;;;;5131980;28;20280;-88
2022/01/24 07:41:07;;;;;;;4.87;4.47;;;;;;;;;;5110571;28;20202;-88
2022/01/24 07:43:36;;;;;;;1.37;1.37;;;;;;;;;;5130861;28;20226;-87
2022/01/24 07:46:05;;;;;;;2.73;2.60;;;;;;;;;;5127166;28;20269;-87
2022/01/24 07:48:35;;;;;;;1.63;1.63;;;;;;;;;;5131352;28;20210;-87
2022/01/24 07:51:04;;;;;;;1.20;1.20;;;;;;;;;;5128573;28;20200;-88
2022/01/24 07:53:39;;;;;;;1.03;1.03;;;;;;;;;;5112938;28;20201;-88
2022/01/24 07:56:12;;;;;;;5.53;5.03;;;;;;;;;;5122434;28;20215;-88
2022/01/24 07:58:43;;;;;;;0.70;0.70;;;;;;;;;;5107548;28;20260;-88
2022/01/24 08:01:18;;;;;;;1.97;1.80;;;;;;;;;;5104712;28;20199;-88
2022/01/24 08:03:51;;;;;;;9.27;6.33;;;;;;;;;;5105601;28;20224;-89
2022/01/24 08:06:21;;;;;;;6.70;4.47;;;;;;;;;;5113668;28;20196;-90
2022/01/24 08:08:49;;;;;;;1.43;1.43;;;;;;;;;;5101299;28;20235;-87
2022/01/24 08:11:19;;;;;;;4.00;3.63;;;;;;;;;;5105926;28;20203;-87
2022/01/24 08:13:48;;;;;;;5.10;2.83;;;;;;;;;;5104828;28;20270;-88
2022/01/24 08:16:17;;;;;;;3.33;3.17;;;;;;;;;;5102830;28;20222;-88
2022/01/24 08:18:50;;;;;;;1.83;1.83;;;;;;;;;;5119622;27;20232;-88
2022/01/24 08:21:20;;;;;;;8.00;5.33;;;;;;;;;;5124199;27;20237;-88
2022/01/24 08:23:49;;;;;;;4.47;2.83;;;;;;;;;;5126164;27;20216;-88
2022/01/24 08:26:19;;;;;;;2.27;2.27;;;;;;;;;;5124776;27;20198;-88
2022/01/24 08:28:47;;;;;;;4.00;3.73;;;;;;;;;;5117807;27;20208;-89
2022/01/24 08:31:16;;;;;;;1.60;1.53;;;;;;;;;;5123528;27;20235;-88
2022/01/24 08:33:44;;;;;;;1.37;1.37;;;;;;;;;;5128129;27;20208;-89
2022/01/24 08:36:13;;;;;;;5.77;5.40;;;;;;;;;;5119680;27;20209;-87
2022/01/24 08:38:46;;;;;;;6.43;5.93;;;;;;;;;;5125727;27;20257;-88
2022/01/24 08:41:24;;;;;;;1.80;1.70;;;;;;;;;;5131772;27;20212;-88
2022/01/24 08:43:59;;;;;;;26.07;17.67;;;;;;;;;;5122129;27;20242;-87
2022/01/24 08:46:28;;;;;;;8.97;7.23;;;;;;;;;;5128816;27;20260;-88
2022/01/24 08:48:56;;;;;;;5.40;4.97;;;;;;;;;;5132292;27;20291;-88
2022/01/24 08:51:25;;;;;;;2.77;2.57;;;;;;;;;;5118960;27;20265;-88
2022/01/24 08:54:08;;;;;;;3.50;3.20;;;;;;;;;;5122472;27;20203;-88
2022/01/24 08:56:37;;;;;;;2.87;2.20;;;;;;;;;;5117549;27;20226;-89
2022/01/24 08:59:08;;;;;;;8.23;6.13;;;;;;;;;;5118902;27;20248;-89
2022/01/24 09:01:38;;;;;;;7.70;6.83;;;;;;;;;;5119236;27;20232;-88
2022/01/24 09:04:10;;;;;;;4.30;3.13;;;;;;;;;;5127859;27;20288;-88
2022/01/24 09:06:41;;;;;;;16.23;7.50;;;;;;;;;;5128984;27;20586;-88
2022/01/24 09:09:13;;;;;;;12.20;6.57;;;;;;;;;;5127636;27;20207;-86
2022/01/24 09:11:43;;;;;;;3.17;3.03;;;;;;;;;;5123569;27;20242;-86
2022/01/24 09:17:15;;;;;;;6.70;6.10;;;;;;;;;;5127543;27;20258;-88
2022/01/24 09:20:03;;;;;;;11.67;6.40;;;;;;;;;;5132957;28;20235;-89
2022/01/24 09:22:42;;;;;;;3.30;3.13;;;;;;;;;;5130494;28;20225;-89
2022/01/24 09:25:15;;;;;;;5.97;5.40;;;;;;;;;;5122129;28;20200;-86
2022/01/24 09:27:44;;;;;;;5.00;3.73;;;;;;;;;;5118881;28;20217;-84
2022/01/24 09:30:14;;;;;;;17.43;11.10;;;;;;;;;;5124401;28;20213;-86
2022/01/24 09:32:43;;;;;;;8.00;7.33;;;;;;;;;;5122885;28;20212;-85
2022/01/24 09:37:55;;;;;;;9.37;6.13;;;;;;;;;;5125143;28;20235;-86
2022/01/24 09:40:38;;;;;;;7.87;6.13;;;;;;;;;;5126966;28;20211;-90
2022/01/24 09:43:07;;;;;;;9.30;7.63;;;;;;;;;;5123343;28;20223;-89
2022/01/24 09:45:37;;;;;;;16.97;8.73;;;;;;;;;;5121907;28;20208;-87
2022/01/24 09:48:10;;;;;;;6.67;4.70;;;;;;;;;;5127420;28;20212;-86
2022/01/24 09:50:39;;;;;;;3.40;3.20;;;;;;;;;;5127946;28;20204;-86
2022/01/24 09:53:14;;;;;;;13.67;10.10;;;;;;;;;;5118535;28;20214;-87
2022/01/24 09:55:44;;;;;;;6.93;4.87;;;;;;;;;;5120141;28;20208;-85
2022/01/24 09:58:15;;;;;;;8.90;4.80;;;;;;;;;;5119693;28;20223;-87
2022/01/24 10:00:44;;;;;;;9.33;3.23;;;;;;;;;;5123847;28;20220;-86
2022/01/24 10:03:13;;;;;;;5.80;4.93;;;;;;;;;;5116744;28;20232;-86
2022/01/24 10:06:02;;;;;;;7.07;6.50;;;;;;;;;;5114896;28;20209;-85
2022/01/24 10:08:32;;;;;;;21.20;14.00;;;;;;;;;;5115869;28;20205;-85
2022/01/24 10:11:03;;;;;;;14.47;7.97;;;;;;;;;;5116173;28;20205;-85
2022/01/24 10:16:33;;;;;;;8.13;6.77;;;;;;;;;;5122334;28;20266;-85
2022/01/24 10:19:04;;;;;;;14.53;6.97;;;;;;;;;;5114449;28;20239;-86
2022/01/24 10:21:54;;;;;;;7.73;6.93;;;;;;;;;;5121903;28;20197;-87
2022/01/24 10:24:34;;;;;;;4.37;4.10;;;;;;;;;;5117050;28;20223;-86
2022/01/24 10:27:08;;;;;;;10.80;6.33;;;;;;;;;;5125510;27;20255;-86
2022/01/24 10:29:42;;;;;;;1.07;1.07;;;;;;;;;;5122111;27;20250;-87
2022/01/24 10:32:27;;;;;;;30.57;19.93;;;;;;;;;;5124936;27;20204;-87
2022/01/24 10:34:55;;;;;;;15.40;10.93;;;;;;;;;;5119590;27;20228;-86
2022/01/24 10:37:24;;;;;;;26.30;17.03;;;;;;;;;;5122706;27;20258;-88
2022/01/24 10:40:05;;;;;;;19.60;11.83;;;;;;;;;;5122447;27;20211;-87
2022/01/24 10:42:52;;;;;;;3.30;3.00;;;;;;;;;;5117843;27;20332;-84
2022/01/24 10:45:22;;;;;;;6.70;6.20;;;;;;;;;;5121724;27;20225;-84
2022/01/24 10:47:54;;;;;;;2.40;2.23;;;;;;;;;;5127848;27;20211;-83
2022/01/24 10:50:28;;;;;;;4.87;4.43;;;;;;;;;;5124335;27;20276;-85
2022/01/24 10:52:57;;;;;;;4.60;4.20;;;;;;;;;;5124626;27;20211;-84
2022/01/24 10:55:27;;;;;;;16.77;10.33;;;;;;;;;;5122244;27;20215;-85
2022/01/24 10:57:59;;;;;;;7.60;5.93;;;;;;;;;;5120198;27;20202;-85
2022/01/24 11:00:29;;;;;;;1.10;1.10;;;;;;;;;;5123024;27;20220;-84
2022/01/24 11:02:59;;;;;;;20.70;13.33;;;;;;;;;;5125650;27;20264;-85
2022/01/24 11:05:29;;;;;;;24.93;13.80;;;;;;;;;;5124332;27;20327;-85
2022/01/24 11:07:58;;;;;;;31.73;18.97;;;;;;;;;;5118294;27;20205;-85
2022/01/24 11:10:29;;;;;;;35.57;21.13;;;;;;;;;;5117874;27;20196;-83
2022/01/24 11:12:59;;;;;;;26.83;17.17;;;;;;;;;;5120408;27;20219;-84
2022/01/24 11:15:28;;;;;;;29.20;17.03;;;;;;;;;;5117790;27;22101;-84
2022/01/24 11:17:58;;;;;;;26.00;15.27;;;;;;;;;;5126318;27;20232;-87
2022/01/24 11:20:30;;;;;;;27.47;18.70;;;;;;;;;;5122676;27;20220;-85
2022/01/24 11:23:01;;;;;;;34.73;20.40;;;;;;;;;;5119485;27;20316;-87
2022/01/24 11:25:30;;;;;;;44.30;32.63;;;;;;;;;;5120962;27;20220;-84
2022/01/24 11:28:00;;;;;;;30.10;19.93;;;;;;;;;;5117657;27;20231;-86
2022/01/24 11:30:30;;;;;;;49.60;32.77;;;;;;;;;;5116062;27;20303;-82
2022/01/24 11:33:04;;;;;;;37.07;23.30;;;;;;;;;;5115665;27;20208;-82
2022/01/24 11:35:38;;;;;;;37.00;24.27;;;;;;;;;;5118174;27;20200;-82
2022/01/24 11:38:26;;;;;;;45.90;30.20;;;;;;;;;;5113993;27;20203;-84
2022/01/24 11:40:59;;;;;;;41.63;24.90;;;;;;;;;;5119099;27;20193;-83
2022/01/24 11:43:35;;;;;;;39.07;24.13;;;;;;;;;;5118601;27;20296;-83
2022/01/24 11:46:07;;;;;;;44.17;26.57;;;;;;;;;;5114554;27;20244;-82
2022/01/24 11:48:36;;;;;;;55.23;31.47;;;;;;;;;;5114155;27;20222;-82
2022/01/24 11:51:07;;;;;;;43.57;28.10;;;;;;;;;;5116770;27;20212;-82
2022/01/24 11:53:42;;;;;;;54.47;36.93;;;;;;;;;;5119790;27;20204;-90
2022/01/24 11:56:24;;;;;;;52.07;34.83;;;;;;;;;;5119920;27;20208;-89
2022/01/24 11:59:15;;;;;;;46.87;30.20;;;;;;;;;;5126318;27;20212;-87
2022/01/24 12:02:07;;;;;;;28.27;20.20;;;;;;;;;;5125902;27;20234;-89
2022/01/24 12:05:03;;;;;;;24.80;16.17;;;;;;;;;;5119184;27;20215;-87
2022/01/24 12:07:32;;;;;;;26.33;14.30;;;;;;;;;;5078048;27;20216;-87
2022/01/24 12:10:16;;;;;;;9.00;6.70;;;;;;;;;;5123990;27;20205;-87
2022/01/24 12:12:49;;;;;;;12.10;9.70;;;;;;;;;;5124630;27;20210;-89
2022/01/24 12:15:41;;;;;;;11.50;10.67;;;;;;;;;;5099739;27;20212;-87
2022/01/24 12:18:12;;;;;;;45.90;29.80;;;;;;;;;;5127712;27;20233;-88
2022/01/24 12:20:47;;;;;;;36.83;21.70;;;;;;;;;;5120065;27;20249;-88
2022/01/24 12:23:33;;;;;;;55.27;31.67;;;;;;;;;;5126458;27;20212;-89
2022/01/24 12:29:15;;;;;;;48.73;29.40;;;;;;;;;;5109001;27;20200;-87
2022/01/24 12:31:51;;;;;;;36.53;23.07;;;;;;;;;;5121635;27;20216;-89
2022/01/24 12:34:24;;;;;;;10.00;9.03;;;;;;;;;;5122927;27;20207;-83
2022/01/24 12:37:00;;;;;;;43.37;26.80;;;;;;;;;;5121014;27;20195;-90
2022/01/24 12:39:33;;;;;;;44.10;27.53;;;;;;;;;;5127207;27;20245;-86
2022/01/24 12:42:04;;;;;;;37.80;25.67;;;;;;;;;;5117382;27;20295;-90
2022/01/24 12:47:24;;;;;;;38.30;22.43;;;;;;;;;;5122671;27;20208;-88
2022/01/24 12:49:54;;;;;;;16.97;10.73;;;;;;;;;;5119890;27;20204;-91
2022/01/24 12:52:25;;;;;;;39.37;24.07;;;;;;;;;;5120349;27;20194;-91
2022/01/24 12:55:01;;;;;;;47.77;28.80;;;;;;;;;;5120285;27;20195;-88
2022/01/24 12:57:37;;;;;;;41.10;23.77;;;;;;;;;;5118819;27;20200;-89
2022/01/24 13:00:08;;;;;;;12.93;9.70;;;;;;;;;;5120184;27;20209;-87
2022/01/24 13:02:37;;;;;;;44.40;28.23;;;;;;;;;;5118477;27;20235;-88
2022/01/24 13:11:24;;;;;;;7.63;5.70;;;;;;;;;;5130299;27;20199;-89
2022/01/24 13:14:05;;;;;;;36.80;19.53;;;;;;;;;;5121534;27;20208;-90
2022/01/24 13:22:33;;;;;;;28.40;18.37;;;;;;;;;;5120505;28;20208;-86
2022/01/24 13:25:15;;;;;;;9.97;6.57;;;;;;;;;;5123854;28;20213;-90
2022/01/24 13:27:50;;;;;;;3.73;3.47;;;;;;;;;;5125301;28;20211;-89
2022/01/24 13:30:46;;;;;;;15.53;10.80;;;;;;;;;;5119739;28;20201;-86
2022/01/24 13:33:18;;;;;;;7.37;6.80;;;;;;;;;;5118201;28;20209;-86
2022/01/24 13:36:22;;;;;;;1.33;1.33;;;;;;;;;;5116082;28;20213;-86
2022/01/24 13:39:04;;;;;;;4.80;4.40;;;;;;;;;;5116942;28;20206;-86
2022/01/24 13:41:38;;;;;;;7.17;6.50;;;;;;;;;;5119219;28;20300;-87
2022/01/24 13:44:09;;;;;;;4.57;4.37;;;;;;;;;;5116881;28;20257;-86
2022/01/24 13:46:39;;;;;;;7.23;6.77;;;;;;;;;;5121046;28;20302;-86
2022/01/24 13:49:10;;;;;;;7.93;7.13;;;;;;;;;;5118484;28;20238;-88
2022/01/24 13:51:49;;;;;;;10.60;6.30;;;;;;;;;;5119555;28;20254;-87
2022/01/24 13:54:20;;;;;;;8.47;6.80;;;;;;;;;;5124477;28;20209;-88
2022/01/24 13:56:52;;;;;;;4.27;3.87;;;;;;;;;;5126410;28;20205;-89
2022/01/24 13:59:26;;;;;;;11.23;6.63;;;;;;;;;;5129819;27;20568;-88
2022/01/24 14:02:01;;;;;;;13.50;7.80;;;;;;;;;;5121533;27;20204;-86
2022/01/24 14:04:52;;;;;;;6.90;5.47;;;;;;;;;;5131747;27;20229;-89
2022/01/24 14:07:27;;;;;;;14.07;6.37;;;;;;;;;;5134077;27;20208;-89
2022/01/24 14:10:05;;;;;;;5.40;5.00;;;;;;;;;;5131401;27;20209;-88
2022/01/24 14:12:49;;;;;;;5.80;5.27;;;;;;;;;;5123909;27;20255;-88
2022/01/24 14:15:25;;;;;;;11.13;9.87;;;;;;;;;;5125036;27;20213;-87
2022/01/24 14:18:22;;;;;;;3.90;3.70;;;;;;;;;;5120812;27;20386;-86
2022/01/24 14:20:54;;;;;;;7.70;5.83;;;;;;;;;;5128667;27;20213;-89
2022/01/24 14:23:34;;;;;;;4.30;3.90;;;;;;;;;;5124130;27;20210;-86
2022/01/24 14:26:19;;;;;;;18.53;7.97;;;;;;;;;;5122375;27;20253;-86
2022/01/24 14:29:04;;;;;;;4.57;3.77;;;;;;;;;;5121732;27;20207;-86
2022/01/24 14:31:45;;;;;;;3.23;3.00;;;;;;;;;;5122744;27;20208;-87
2022/01/24 14:34:16;;;;;;;7.43;6.83;;;;;;;;;;5123459;27;20213;-88
2022/01/24 14:36:56;;;;;;;13.00;8.83;;;;;;;;;;5127477;27;20215;-87
2022/01/24 14:39:25;;;;;;;9.07;6.77;;;;;;;;;;5123502;27;20205;-87
2022/01/24 14:41:54;;;;;;;16.20;7.43;;;;;;;;;;5125584;27;20219;-87
2022/01/24 14:47:11;;;;;;;20.27;11.77;;;;;;;;;;5123313;27;20228;-88
2022/01/24 14:49:43;;;;;;;9.20;7.27;;;;;;;;;;5116423;27;20215;-88
2022/01/24 14:52:14;;;;;;;10.33;7.03;;;;;;;;;;5119857;27;20205;-87
2022/01/24 14:54:43;;;;;;;9.23;5.23;;;;;;;;;;5121518;27;20220;-90
2022/01/24 14:57:12;;;;;;;4.00;3.70;;;;;;;;;;5123053;27;20200;-86
2022/01/24 14:59:44;;;;;;;6.90;4.93;;;;;;;;;;5124526;27;20212;-86
2022/01/24 15:02:13;;;;;;;7.87;6.47;;;;;;;;;;5126104;27;20209;-87
2022/01/24 15:04:44;;;;;;;39.77;21.87;;;;;;;;;;5128431;27;20288;-87
2022/01/24 15:07:13;;;;;;;14.73;8.97;;;;;;;;;;5125519;27;20224;-88
2022/01/24 15:09:42;;;;;;;5.60;4.97;;;;;;;;;;5124586;27;20217;-90
2022/01/24 15:12:11;;;;;;;30.67;18.40;;;;;;;;;;5120803;27;20455;-87
2022/01/24 15:14:48;;;;;;;44.40;26.40;;;;;;;;;;5120178;27;20213;-90
2022/01/24 15:17:46;;;;;;;5.53;5.23;;;;;;;;;;5126932;27;20224;-88
2022/01/24 15:26:37;;;;;;;13.77;9.43;;;;;;;;;;5088789;28;20292;-88
2022/01/24 15:29:22;;;;;;;7.30;5.47;;;;;;;;;;5081110;28;20203;-88
2022/01/24 15:32:07;;;;;;;7.10;6.23;;;;;;;;;;5093789;28;20221;-88
2022/01/24 15:34:40;;;;;;;14.00;7.93;;;;;;;;;;5081694;28;20248;-90
2022/01/24 15:37:10;;;;;;;12.57;10.20;;;;;;;;;;5076446;28;20218;-89
2022/01/24 15:39:39;;;;;;;2.27;2.17;;;;;;;;;;5081556;28;20203;-88
2022/01/24 15:42:15;;;;;;;4.37;4.17;;;;;;;;;;5085329;28;20270;-91
2022/01/24 15:47:55;;;;;;;9.77;6.53;;;;;;;;;;5069725;28;20306;-88
2022/01/24 15:50:24;;;;;;;3.07;2.93;;;;;;;;;;5076033;28;20207;-90
2022/01/24 15:52:54;;;;;;;10.47;6.80;;;;;;;;;;5078662;28;20198;-88
2022/01/24 15:55:28;;;;;;;13.40;8.53;;;;;;;;;;5112926;27;20213;-90
2022/01/24 15:58:03;;;;;;;5.57;5.17;;;;;;;;;;5126332;27;20334;-84
2022/01/24 16:00:45;;;;;;;3.40;3.13;;;;;;;;;;5117137;27;20254;-92
2022/01/24 16:03:34;;;;;;;11.60;6.10;;;;;;;;;;5124263;27;20209;-90
2022/01/24 16:06:08;;;;;;;7.23;6.73;;;;;;;;;;5129952;27;20229;-87
2022/01/24 16:08:40;;;;;;;6.03;5.50;;;;;;;;;;5125219;27;20217;-91
2022/01/24 16:11:29;;;;;;;4.30;4.10;;;;;;;;;;5124932;27;20323;-92
2022/01/24 16:14:20;;;;;;;6.60;5.47;;;;;;;;;;5124565;27;20222;-89
2022/01/24 16:16:50;;;;;;;3.97;3.67;;;;;;;;;;5124817;27;20211;-88
2022/01/24 16:19:22;;;;;;;10.37;4.87;;;;;;;;;;5125944;27;20235;-88
2022/01/24 16:22:02;;;;;;;17.60;11.27;;;;;;;;;;5123018;27;20200;-89
2022/01/24 16:27:38;;;;;;;7.60;6.73;;;;;;;;;;5122928;27;20231;-92
2022/01/24 16:30:07;;;;;;;5.60;4.30;;;;;;;;;;5130809;27;20212;-89
2022/01/24 16:32:36;;;;;;;6.57;6.00;;;;;;;;;;5123097;27;20200;-90
2022/01/24 16:35:05;;;;;;;9.97;9.10;;;;;;;;;;5122219;27;20205;-87
2022/01/24 16:37:36;;;;;;;5.40;3.77;;;;;;;;;;5125464;27;20202;-88
2022/01/24 16:40:09;;;;;;;15.37;10.10;;;;;;;;;;5119746;27;20201;-88
2022/01/24 16:42:52;;;;;;;4.47;3.33;;;;;;;;;;5123284;27;20216;-89
2022/01/24 16:48:03;;;;;;;26.70;16.83;;;;;;;;;;5114924;27;20274;-88
2022/01/24 16:50:31;;;;;;;7.67;3.37;;;;;;;;;;5130072;27;20286;-88
2022/01/24 16:53:01;;;;;;;13.73;8.17;;;;;;;;;;5127370;27;20240;-88